sensor_id;sensor_type;location;lat;lon;timestamp;temperature;humidity
23233;DHT22;11785;49.500;8.288;2023-03-29T00:01:51;7.10;93.00
23233;DHT22;11785;49.500;8.288;2023-03-29T00:04:17;7.10;93.20
23233;DHT22;11785;49.500;8.288;2023-03-29T00:06:45;7.10;93.20
23233;DHT22;11785;49.500;8.288;2023-03-29T00:09:12;7.10;93.30
23233;DHT22;11785;49.500;8.288;2023-03-29T00:11:38;7.10;93.20
23233;DHT22;11785;49.500;8.288;2023-03-29T00:14:04;7.10;93.40
23233;DHT22;11785;49.500;8.288;2023-03-29T00:16:29;7.10;93.50
23233;DHT22;11785;49.500;8.288;2023-03-29T00:18:55;7.10;93.80
23233;DHT22;11785;49.500;8.288;2023-03-29T00:21:21;7.10;94.00
23233;DHT22;11785;49.500;8.288;2023-03-29T00:23:46;7.10;94.10
23233;DHT22;11785;49.500;8.288;2023-03-29T00:26:12;7.10;93.90
23233;DHT22;11785;49.500;8.288;2023-03-29T00:28:37;7.10;93.60
23233;DHT22;11785;49.500;8.288;2023-03-29T00:31:09;7.10;93.80
23233;DHT22;11785;49.500;8.288;2023-03-29T00:33:35;7.10;94.20
23233;DHT22;11785;49.500;8.288;2023-03-29T00:36:01;7.10;94.20
23233;DHT22;11785;49.500;8.288;2023-03-29T00:38:29;7.10;94.50
23233;DHT22;11785;49.500;8.288;2023-03-29T00:40:55;7.10;94.20
23233;DHT22;11785;49.500;8.288;2023-03-29T00:43:20;7.10;94.30
23233;DHT22;11785;49.500;8.288;2023-03-29T00:45:46;7.10;94.30
23233;DHT22;11785;49.500;8.288;2023-03-29T00:48:18;7.10;94.10
23233;DHT22;11785;49.500;8.288;2023-03-29T00:50:58;7.10;93.50
23233;DHT22;11785;49.500;8.288;2023-03-29T00:56:01;7.10;92.70
23233;DHT22;11785;49.500;8.288;2023-03-29T00:58:48;7.10;92.90
23233;DHT22;11785;49.500;8.288;2023-03-29T01:01:22;7.10;92.70
23233;DHT22;11785;49.500;8.288;2023-03-29T01:04:03;7.10;92.70
23233;DHT22;11785;49.500;8.288;2023-03-29T01:06:31;7.10;92.80
23233;DHT22;11785;49.500;8.288;2023-03-29T01:09:01;7.10;92.60
23233;DHT22;11785;49.500;8.288;2023-03-29T01:11:41;7.10;92.40
23233;DHT22;11785;49.500;8.288;2023-03-29T01:16:43;7.10;93.00
23233;DHT22;11785;49.500;8.288;2023-03-29T01:19:12;7.10;93.10
23233;DHT22;11785;49.500;8.288;2023-03-29T01:21:47;7.00;93.70
23233;DHT22;11785;49.500;8.288;2023-03-29T01:24:34;7.10;93.50
23233;DHT22;11785;49.500;8.288;2023-03-29T01:27:13;7.10;93.40
23233;DHT22;11785;49.500;8.288;2023-03-29T01:29:46;7.00;93.50
23233;DHT22;11785;49.500;8.288;2023-03-29T01:32:18;7.00;93.50
23233;DHT22;11785;49.500;8.288;2023-03-29T01:34:59;7.00;93.70
23233;DHT22;11785;49.500;8.288;2023-03-29T01:37:30;7.00;93.40
23233;DHT22;11785;49.500;8.288;2023-03-29T01:39:59;7.00;93.40
23233;DHT22;11785;49.500;8.288;2023-03-29T01:42:28;7.00;93.40
23233;DHT22;11785;49.500;8.288;2023-03-29T01:45:09;7.00;93.50
23233;DHT22;11785;49.500;8.288;2023-03-29T01:48:00;7.00;93.50
23233;DHT22;11785;49.500;8.288;2023-03-29T01:50:51;7.00;93.10
23233;DHT22;11785;49.500;8.288;2023-03-29T01:53:55;7.00;93.10
23233;DHT22;11785;49.500;8.288;2023-03-29T01:56:24;7.00;93.40
23233;DHT22;11785;49.500;8.288;2023-03-29T01:59:06;7.00;93.50
23233;DHT22;11785;49.500;8.288;2023-03-29T02:01:37;7.00;93.50
23233;DHT22;11785;49.500;8.288;2023-03-29T02:04:08;6.90;94.10
23233;DHT22;11785;49.500;8.288;2023-03-29T02:06:36;6.90;93.90
23233;DHT22;11785;49.500;8.288;2023-03-29T02:09:04;6.90;94.30
23233;DHT22;11785;49.500;8.288;2023-03-29T02:11:32;6.90;94.30
23233;DHT22;11785;49.500;8.288;2023-03-29T02:13:59;6.90;94.30
23233;DHT22;11785;49.500;8.288;2023-03-29T02:16:25;6.90;94.50
23233;DHT22;11785;49.500;8.288;2023-03-29T02:18:53;6.90;94.40
23233;DHT22;11785;49.500;8.288;2023-03-29T02:21:36;6.90;94.30
23233;DHT22;11785;49.500;8.288;2023-03-29T02:24:05;6.80;94.80
23233;DHT22;11785;49.500;8.288;2023-03-29T02:26:33;6.80;95.00
23233;DHT22;11785;49.500;8.288;2023-03-29T02:28:58;6.80;95.30
23233;DHT22;11785;49.500;8.288;2023-03-29T02:31:37;6.70;95.70
23233;DHT22;11785;49.500;8.288;2023-03-29T02:34:12;6.70;95.80
23233;DHT22;11785;49.500;8.288;2023-03-29T02:36:46;6.70;96.30
23233;DHT22;11785;49.500;8.288;2023-03-29T02:39:15;6.70;96.10
23233;DHT22;11785;49.500;8.288;2023-03-29T02:41:45;6.70;96.40
23233;DHT22;11785;49.500;8.288;2023-03-29T02:44:14;6.70;96.40
23233;DHT22;11785;49.500;8.288;2023-03-29T02:46:41;6.70;95.90
23233;DHT22;11785;49.500;8.288;2023-03-29T02:49:09;6.70;95.70
23233;DHT22;11785;49.500;8.288;2023-03-29T02:51:35;6.70;95.90
23233;DHT22;11785;49.500;8.288;2023-03-29T02:54:12;6.70;95.90
23233;DHT22;11785;49.500;8.288;2023-03-29T02:56:57;6.70;95.80
23233;DHT22;11785;49.500;8.288;2023-03-29T02:59:23;6.70;95.80
23233;DHT22;11785;49.500;8.288;2023-03-29T03:01:49;6.70;95.70
23233;DHT22;11785;49.500;8.288;2023-03-29T03:04:15;6.60;96.20
23233;DHT22;11785;49.500;8.288;2023-03-29T03:06:42;6.60;96.50
23233;DHT22;11785;49.500;8.288;2023-03-29T03:09:08;6.50;96.60
23233;DHT22;11785;49.500;8.288;2023-03-29T03:11:34;6.40;97.00
23233;DHT22;11785;49.500;8.288;2023-03-29T03:14:00;6.40;97.00
23233;DHT22;11785;49.500;8.288;2023-03-29T03:16:26;6.20;97.70
23233;DHT22;11785;49.500;8.288;2023-03-29T03:18:52;6.20;97.90
23233;DHT22;11785;49.500;8.288;2023-03-29T03:21:19;6.20;98.00
23233;DHT22;11785;49.500;8.288;2023-03-29T03:23:45;6.20;98.10
23233;DHT22;11785;49.500;8.288;2023-03-29T03:26:12;6.30;97.60
23233;DHT22;11785;49.500;8.288;2023-03-29T03:28:38;6.30;97.30
23233;DHT22;11785;49.500;8.288;2023-03-29T03:31:04;6.30;97.60
23233;DHT22;11785;49.500;8.288;2023-03-29T03:33:30;6.30;97.50
23233;DHT22;11785;49.500;8.288;2023-03-29T03:35:55;6.30;97.40
23233;DHT22;11785;49.500;8.288;2023-03-29T03:38:29;6.20;97.50
23233;DHT22;11785;49.500;8.288;2023-03-29T03:40:55;6.20;97.50
23233;DHT22;11785;49.500;8.288;2023-03-29T03:43:21;6.10;98.00
23233;DHT22;11785;49.500;8.288;2023-03-29T03:45:47;6.20;97.50
23233;DHT22;11785;49.500;8.288;2023-03-29T03:48:13;6.20;97.40
23233;DHT22;11785;49.500;8.288;2023-03-29T03:50:39;6.20;97.30
23233;DHT22;11785;49.500;8.288;2023-03-29T03:53:05;6.30;96.80
23233;DHT22;11785;49.500;8.288;2023-03-29T03:55:31;6.30;96.80
23233;DHT22;11785;49.500;8.288;2023-03-29T03:57:58;6.20;97.00
23233;DHT22;11785;49.500;8.288;2023-03-29T04:00:24;6.20;97.00
23233;DHT22;11785;49.500;8.288;2023-03-29T04:02:51;6.20;97.00
23233;DHT22;11785;49.500;8.288;2023-03-29T04:05:18;6.20;97.00
23233;DHT22;11785;49.500;8.288;2023-03-29T04:07:44;6.20;96.90
23233;DHT22;11785;49.500;8.288;2023-03-29T04:10:10;6.10;97.30
23233;DHT22;11785;49.500;8.288;2023-03-29T04:12:36;6.10;97.40
23233;DHT22;11785;49.500;8.288;2023-03-29T04:15:03;6.00;97.70
23233;DHT22;11785;49.500;8.288;2023-03-29T04:17:28;6.10;97.50
23233;DHT22;11785;49.500;8.288;2023-03-29T04:19:54;6.10;97.60
23233;DHT22;11785;49.500;8.288;2023-03-29T04:22:20;6.00;97.90
23233;DHT22;11785;49.500;8.288;2023-03-29T04:24:46;6.00;98.10
23233;DHT22;11785;49.500;8.288;2023-03-29T04:27:11;6.00;97.70
23233;DHT22;11785;49.500;8.288;2023-03-29T04:29:37;6.00;97.70
23233;DHT22;11785;49.500;8.288;2023-03-29T04:32:02;6.00;97.50
23233;DHT22;11785;49.500;8.288;2023-03-29T04:34:28;6.10;97.10
23233;DHT22;11785;49.500;8.288;2023-03-29T04:36:53;6.10;97.00
23233;DHT22;11785;49.500;8.288;2023-03-29T04:39:19;6.10;97.00
23233;DHT22;11785;49.500;8.288;2023-03-29T04:41:45;6.10;97.00
23233;DHT22;11785;49.500;8.288;2023-03-29T04:44:11;6.20;96.60
23233;DHT22;11785;49.500;8.288;2023-03-29T04:46:38;6.20;96.60
23233;DHT22;11785;49.500;8.288;2023-03-29T04:49:05;6.20;96.50
23233;DHT22;11785;49.500;8.288;2023-03-29T04:51:31;6.20;96.60
23233;DHT22;11785;49.500;8.288;2023-03-29T04:53:58;6.20;96.50
23233;DHT22;11785;49.500;8.288;2023-03-29T04:56:23;6.20;96.70
23233;DHT22;11785;49.500;8.288;2023-03-29T04:58:49;6.20;96.60
23233;DHT22;11785;49.500;8.288;2023-03-29T05:01:15;6.10;97.00
23233;DHT22;11785;49.500;8.288;2023-03-29T05:03:41;6.10;97.10
23233;DHT22;11785;49.500;8.288;2023-03-29T05:06:09;6.10;97.10
23233;DHT22;11785;49.500;8.288;2023-03-29T05:08:37;6.10;97.10
23233;DHT22;11785;49.500;8.288;2023-03-29T05:11:05;6.10;97.00
23233;DHT22;11785;49.500;8.288;2023-03-29T05:13:31;6.10;97.10
23233;DHT22;11785;49.500;8.288;2023-03-29T05:15:57;6.10;97.10
23233;DHT22;11785;49.500;8.288;2023-03-29T05:18:25;6.10;97.00
23233;DHT22;11785;49.500;8.288;2023-03-29T05:20:50;6.10;97.00
23233;DHT22;11785;49.500;8.288;2023-03-29T05:23:17;6.10;97.00
23233;DHT22;11785;49.500;8.288;2023-03-29T05:25:43;6.10;97.00
23233;DHT22;11785;49.500;8.288;2023-03-29T05:28:08;6.10;96.90
23233;DHT22;11785;49.500;8.288;2023-03-29T05:30:34;6.20;96.50
23233;DHT22;11785;49.500;8.288;2023-03-29T05:33:03;6.20;96.50
23233;DHT22;11785;49.500;8.288;2023-03-29T05:35:30;6.20;96.40
23233;DHT22;11785;49.500;8.288;2023-03-29T05:37:55;6.20;96.30
23233;DHT22;11785;49.500;8.288;2023-03-29T05:40:23;6.20;96.40
23233;DHT22;11785;49.500;8.288;2023-03-29T05:42:51;6.30;95.90
23233;DHT22;11785;49.500;8.288;2023-03-29T05:45:17;6.30;95.70
23233;DHT22;11785;49.500;8.288;2023-03-29T05:47:43;6.40;95.40
23233;DHT22;11785;49.500;8.288;2023-03-29T05:50:09;6.40;95.40
23233;DHT22;11785;49.500;8.288;2023-03-29T05:52:35;6.40;95.20
23233;DHT22;11785;49.500;8.288;2023-03-29T05:55:05;6.50;94.80
23233;DHT22;11785;49.500;8.288;2023-03-29T05:57:34;6.60;94.40
23233;DHT22;11785;49.500;8.288;2023-03-29T06:00:00;6.60;94.30
23233;DHT22;11785;49.500;8.288;2023-03-29T06:02:26;6.70;93.90
23233;DHT22;11785;49.500;8.288;2023-03-29T06:04:53;6.80;93.60
23233;DHT22;11785;49.500;8.288;2023-03-29T06:07:19;6.80;93.40
23233;DHT22;11785;49.500;8.288;2023-03-29T06:09:45;6.90;93.00
23233;DHT22;11785;49.500;8.288;2023-03-29T06:12:10;7.00;92.60
23233;DHT22;11785;49.500;8.288;2023-03-29T06:14:36;7.10;92.20
23233;DHT22;11785;49.500;8.288;2023-03-29T06:17:02;7.10;91.90
23233;DHT22;11785;49.500;8.288;2023-03-29T06:19:27;7.20;91.40
23233;DHT22;11785;49.500;8.288;2023-03-29T06:21:53;7.30;90.90
23233;DHT22;11785;49.500;8.288;2023-03-29T06:24:19;7.40;90.60
23233;DHT22;11785;49.500;8.288;2023-03-29T06:26:45;7.50;90.00
23233;DHT22;11785;49.500;8.288;2023-03-29T06:29:11;7.60;89.20
23233;DHT22;11785;49.500;8.288;2023-03-29T06:31:36;7.70;88.20
23233;DHT22;11785;49.500;8.288;2023-03-29T06:34:02;7.80;86.20
23233;DHT22;11785;49.500;8.288;2023-03-29T06:36:29;7.80;86.10
23233;DHT22;11785;49.500;8.288;2023-03-29T06:38:55;7.90;85.10
23233;DHT22;11785;49.500;8.288;2023-03-29T06:41:20;8.00;83.80
23233;DHT22;11785;49.500;8.288;2023-03-29T06:43:46;8.10;82.90
23233;DHT22;11785;49.500;8.288;2023-03-29T06:46:12;8.30;82.10
23233;DHT22;11785;49.500;8.288;2023-03-29T06:48:38;8.40;80.50
23233;DHT22;11785;49.500;8.288;2023-03-29T06:51:04;8.40;78.70
23233;DHT22;11785;49.500;8.288;2023-03-29T06:53:32;8.40;78.70
23233;DHT22;11785;49.500;8.288;2023-03-29T06:55:57;8.40;78.30
23233;DHT22;11785;49.500;8.288;2023-03-29T06:58:24;8.40;78.10
23233;DHT22;11785;49.500;8.288;2023-03-29T07:00:49;8.50;77.20
23233;DHT22;11785;49.500;8.288;2023-03-29T07:03:16;8.60;76.90
23233;DHT22;11785;49.500;8.288;2023-03-29T07:05:47;8.70;75.80
23233;DHT22;11785;49.500;8.288;2023-03-29T07:08:16;8.70;75.30
23233;DHT22;11785;49.500;8.288;2023-03-29T07:10:45;8.70;75.10
23233;DHT22;11785;49.500;8.288;2023-03-29T07:13:12;8.80;74.60
23233;DHT22;11785;49.500;8.288;2023-03-29T07:15:42;8.90;73.60
23233;DHT22;11785;49.500;8.288;2023-03-29T07:18:08;8.90;73.70
23233;DHT22;11785;49.500;8.288;2023-03-29T07:20:34;8.90;73.60
23233;DHT22;11785;49.500;8.288;2023-03-29T07:23:02;9.00;72.90
23233;DHT22;11785;49.500;8.288;2023-03-29T07:25:28;9.10;72.60
23233;DHT22;11785;49.500;8.288;2023-03-29T07:27:55;9.20;71.50
23233;DHT22;11785;49.500;8.288;2023-03-29T07:30:25;9.30;71.00
23233;DHT22;11785;49.500;8.288;2023-03-29T07:32:53;9.40;70.20
23233;DHT22;11785;49.500;8.288;2023-03-29T07:35:19;9.50;69.60
23233;DHT22;11785;49.500;8.288;2023-03-29T07:37:45;9.50;69.60
23233;DHT22;11785;49.500;8.288;2023-03-29T07:40:13;9.40;69.80
23233;DHT22;11785;49.500;8.288;2023-03-29T07:42:46;9.40;69.60
23233;DHT22;11785;49.500;8.288;2023-03-29T07:45:14;9.40;70.20
23233;DHT22;11785;49.500;8.288;2023-03-29T07:47:43;9.50;69.10
23233;DHT22;11785;49.500;8.288;2023-03-29T07:50:09;9.50;69.40
23233;DHT22;11785;49.500;8.288;2023-03-29T07:52:36;9.60;69.40
23233;DHT22;11785;49.500;8.288;2023-03-29T07:55:03;9.70;68.30
23233;DHT22;11785;49.500;8.288;2023-03-29T07:57:29;9.70;67.40
23233;DHT22;11785;49.500;8.288;2023-03-29T07:59:54;9.80;67.20
23233;DHT22;11785;49.500;8.288;2023-03-29T08:02:20;10.10;64.60
23233;DHT22;11785;49.500;8.288;2023-03-29T08:04:46;10.20;64.70
23233;DHT22;11785;49.500;8.288;2023-03-29T08:07:13;10.30;63.40
23233;DHT22;11785;49.500;8.288;2023-03-29T08:09:38;10.30;62.90
23233;DHT22;11785;49.500;8.288;2023-03-29T08:12:05;10.40;63.40
23233;DHT22;11785;49.500;8.288;2023-03-29T08:14:30;10.60;61.70
23233;DHT22;11785;49.500;8.288;2023-03-29T08:16:56;10.70;60.60
23233;DHT22;11785;49.500;8.288;2023-03-29T08:19:21;10.70;60.50
23233;DHT22;11785;49.500;8.288;2023-03-29T08:21:47;10.60;61.60
23233;DHT22;11785;49.500;8.288;2023-03-29T08:24:13;10.50;62.70
23233;DHT22;11785;49.500;8.288;2023-03-29T08:26:38;10.70;62.10
23233;DHT22;11785;49.500;8.288;2023-03-29T08:29:04;10.70;61.70
23233;DHT22;11785;49.500;8.288;2023-03-29T08:31:30;10.70;62.20
23233;DHT22;11785;49.500;8.288;2023-03-29T08:33:56;10.90;60.30
23233;DHT22;11785;49.500;8.288;2023-03-29T08:36:22;11.10;59.90
23233;DHT22;11785;49.500;8.288;2023-03-29T08:38:47;11.50;59.80
23233;DHT22;11785;49.500;8.288;2023-03-29T08:49:41;11.60;59.80
23233;DHT22;11785;49.500;8.288;2023-03-29T08:52:29;11.60;59.80
23233;DHT22;11785;49.500;8.288;2023-03-29T08:54:57;11.60;59.80
23233;DHT22;11785;49.500;8.288;2023-03-29T08:57:43;11.50;59.80
23233;DHT22;11785;49.500;8.288;2023-03-29T09:02:58;11.70;59.80
23233;DHT22;11785;49.500;8.288;2023-03-29T09:05:29;12.00;59.70
23233;DHT22;11785;49.500;8.288;2023-03-29T09:07:58;12.30;59.60
23233;DHT22;11785;49.500;8.288;2023-03-29T09:10:29;12.40;59.60
23233;DHT22;11785;49.500;8.288;2023-03-29T09:13:18;12.30;59.60
23233;DHT22;11785;49.500;8.288;2023-03-29T09:15:56;12.30;59.60
23233;DHT22;11785;49.500;8.288;2023-03-29T09:21:38;12.70;59.60
23233;DHT22;11785;49.500;8.288;2023-03-29T09:29:38;13.70;59.30
23233;DHT22;11785;49.500;8.288;2023-03-29T09:32:16;13.40;59.30
23233;DHT22;11785;49.500;8.288;2023-03-29T09:34:52;13.60;59.30
23233;DHT22;11785;49.500;8.288;2023-03-29T09:37:28;13.80;59.20
23233;DHT22;11785;49.500;8.288;2023-03-29T09:39:55;13.80;59.20
23233;DHT22;11785;49.500;8.288;2023-03-29T09:42:22;13.70;59.30
23233;DHT22;11785;49.500;8.288;2023-03-29T09:44:53;13.80;59.20
23233;DHT22;11785;49.500;8.288;2023-03-29T09:47:28;13.90;59.20
23233;DHT22;11785;49.500;8.288;2023-03-29T09:49:56;14.10;59.10
23233;DHT22;11785;49.500;8.288;2023-03-29T09:52:22;14.20;59.10
23233;DHT22;11785;49.500;8.288;2023-03-29T09:54:48;14.30;59.10
23233;DHT22;11785;49.500;8.288;2023-03-29T09:57:17;14.50;59.00
23233;DHT22;11785;49.500;8.288;2023-03-29T09:59:48;14.70;59.00
23233;DHT22;11785;49.500;8.288;2023-03-29T10:02:18;15.20;58.90
23233;DHT22;11785;49.500;8.288;2023-03-29T10:04:44;15.60;58.80
23233;DHT22;11785;49.500;8.288;2023-03-29T10:07:18;15.50;58.80
23233;DHT22;11785;49.500;8.288;2023-03-29T10:09:45;15.30;58.80
23233;DHT22;11785;49.500;8.288;2023-03-29T10:12:12;15.50;58.80
23233;DHT22;11785;49.500;8.288;2023-03-29T10:14:47;15.50;58.80
23233;DHT22;11785;49.500;8.288;2023-03-29T10:17:20;15.40;58.80
23233;DHT22;11785;49.500;8.288;2023-03-29T10:19:49;15.60;58.70
23233;DHT22;11785;49.500;8.288;2023-03-29T10:22:22;15.40;58.80
23233;DHT22;11785;49.500;8.288;2023-03-29T10:24:53;15.60;58.70
23233;DHT22;11785;49.500;8.288;2023-03-29T10:27:22;15.70;58.70
23233;DHT22;11785;49.500;8.288;2023-03-29T10:29:49;15.60;58.70
23233;DHT22;11785;49.500;8.288;2023-03-29T10:32:35;15.40;58.70
23233;DHT22;11785;49.500;8.288;2023-03-29T10:35:23;15.80;58.70
23233;DHT22;11785;49.500;8.288;2023-03-29T10:37:55;16.00;58.60
23233;DHT22;11785;49.500;8.288;2023-03-29T10:40:28;15.90;58.60
23233;DHT22;11785;49.500;8.288;2023-03-29T10:42:58;16.00;58.60
23233;DHT22;11785;49.500;8.288;2023-03-29T10:45:32;15.80;58.50
23233;DHT22;11785;49.500;8.288;2023-03-29T10:47:59;15.90;58.50
23233;DHT22;11785;49.500;8.288;2023-03-29T10:50:30;15.80;58.60
23233;DHT22;11785;49.500;8.288;2023-03-29T10:52:57;16.40;58.40
23233;DHT22;11785;49.500;8.288;2023-03-29T10:55:31;17.10;58.30
23233;DHT22;11785;49.500;8.288;2023-03-29T11:00:45;17.30;58.10
23233;DHT22;11785;49.500;8.288;2023-03-29T11:03:37;17.40;58.10
23233;DHT22;11785;49.500;8.288;2023-03-29T11:06:31;17.30;58.10
23233;DHT22;11785;49.500;8.288;2023-03-29T11:09:03;17.60;58.00
23233;DHT22;11785;49.500;8.288;2023-03-29T11:11:49;17.70;57.90
23233;DHT22;11785;49.500;8.288;2023-03-29T11:20:51;18.20;57.80
23233;DHT22;11785;49.500;8.288;2023-03-29T11:23:47;18.30;57.70
23233;DHT22;11785;49.500;8.288;2023-03-29T11:28:54;18.50;57.60
23233;DHT22;11785;49.500;8.288;2023-03-29T11:34:23;18.20;57.70
23233;DHT22;11785;49.500;8.288;2023-03-29T11:41:54;17.50;57.80
23233;DHT22;11785;49.500;8.288;2023-03-29T11:44:29;17.30;57.90
23233;DHT22;11785;49.500;8.288;2023-03-29T11:47:07;17.10;58.00
23233;DHT22;11785;49.500;8.288;2023-03-29T11:49:41;16.90;58.10
23233;DHT22;11785;49.500;8.288;2023-03-29T11:52:15;17.10;58.00
23233;DHT22;11785;49.500;8.288;2023-03-29T11:55:13;17.50;57.90
23233;DHT22;11785;49.500;8.288;2023-03-29T11:57:41;17.90;57.80
23233;DHT22;11785;49.500;8.288;2023-03-29T12:00:17;18.30;57.80
23233;DHT22;11785;49.500;8.288;2023-03-29T12:05:23;18.30;57.70
23233;DHT22;11785;49.500;8.288;2023-03-29T12:08:05;17.90;57.80
23233;DHT22;11785;49.500;8.288;2023-03-29T12:13:38;17.70;57.90
23233;DHT22;11785;49.500;8.288;2023-03-29T12:18:43;18.00;57.90
23233;DHT22;11785;49.500;8.288;2023-03-29T12:21:22;18.10;57.80
23233;DHT22;11785;49.500;8.288;2023-03-29T12:23:49;18.30;57.80
23233;DHT22;11785;49.500;8.288;2023-03-29T12:26:33;18.80;57.70
23233;DHT22;11785;49.500;8.288;2023-03-29T12:40:42;22.70;56.50
23233;DHT22;11785;49.500;8.288;2023-03-29T12:45:46;24.80;55.90
23233;DHT22;11785;49.500;8.288;2023-03-29T12:48:15;25.30;46.30
23233;DHT22;11785;49.500;8.288;2023-03-29T12:51:03;25.50;46.50
23233;DHT22;11785;49.500;8.288;2023-03-29T12:53:41;25.80;46.60
23233;DHT22;11785;49.500;8.288;2023-03-29T12:56:12;26.80;47.00
23233;DHT22;11785;49.500;8.288;2023-03-29T13:06:06;30.70;48.50
23233;DHT22;11785;49.500;8.288;2023-03-29T13:08:34;29.60;48.20
23233;DHT22;11785;49.500;8.288;2023-03-29T13:11:01;29.70;48.20
23233;DHT22;11785;49.500;8.288;2023-03-29T13:13:36;28.20;47.80
23233;DHT22;11785;49.500;8.288;2023-03-29T13:16:32;25.30;46.80
23233;DHT22;11785;49.500;8.288;2023-03-29T13:19:05;24.70;55.60
23233;DHT22;11785;49.500;8.288;2023-03-29T13:22:15;24.90;55.60
23233;DHT22;11785;49.500;8.288;2023-03-29T13:24:56;25.30;46.70
23233;DHT22;11785;49.500;8.288;2023-03-29T13:27:42;24.80;55.50
23233;DHT22;11785;49.500;8.288;2023-03-29T13:38:23;20.60;56.80
23233;DHT22;11785;49.500;8.288;2023-03-29T13:40:58;20.20;56.90
23233;DHT22;11785;49.500;8.288;2023-03-29T13:51:22;19.50;57.20
23233;DHT22;11785;49.500;8.288;2023-03-29T13:53:56;19.50;57.20
23233;DHT22;11785;49.500;8.288;2023-03-29T13:56:37;19.50;57.20
23233;DHT22;11785;49.500;8.288;2023-03-29T13:59:14;19.60;57.20
23233;DHT22;11785;49.500;8.288;2023-03-29T14:01:47;19.70;57.10
23233;DHT22;11785;49.500;8.288;2023-03-29T14:04:37;20.30;57.00
23233;DHT22;11785;49.500;8.288;2023-03-29T14:07:07;20.40;57.00
23233;DHT22;11785;49.500;8.288;2023-03-29T14:09:39;19.80;57.10
23233;DHT22;11785;49.500;8.288;2023-03-29T14:12:10;19.30;57.10
23233;DHT22;11785;49.500;8.288;2023-03-29T14:14:36;19.10;57.20
23233;DHT22;11785;49.500;8.288;2023-03-29T14:17:04;18.60;57.30
23233;DHT22;11785;49.500;8.288;2023-03-29T14:19:33;18.30;57.40
23233;DHT22;11785;49.500;8.288;2023-03-29T14:22:00;18.40;57.40
23233;DHT22;11785;49.500;8.288;2023-03-29T14:24:34;18.60;57.30
23233;DHT22;11785;49.500;8.288;2023-03-29T14:27:04;18.60;57.30
23233;DHT22;11785;49.500;8.288;2023-03-29T14:29:33;18.60;57.40
23233;DHT22;11785;49.500;8.288;2023-03-29T14:32:10;18.40;57.40
23233;DHT22;11785;49.500;8.288;2023-03-29T14:34:37;18.00;57.50
23233;DHT22;11785;49.500;8.288;2023-03-29T14:37:02;17.80;57.60
23233;DHT22;11785;49.500;8.288;2023-03-29T14:39:31;17.80;57.60
23233;DHT22;11785;49.500;8.288;2023-03-29T14:41:58;17.70;57.70
23233;DHT22;11785;49.500;8.288;2023-03-29T14:44:31;17.70;57.70
23233;DHT22;11785;49.500;8.288;2023-03-29T14:47:00;17.60;57.70
23233;DHT22;11785;49.500;8.288;2023-03-29T14:49:26;17.60;57.70
23233;DHT22;11785;49.500;8.288;2023-03-29T14:51:52;17.80;57.70
23233;DHT22;11785;49.500;8.288;2023-03-29T14:54:28;18.00;57.70
23233;DHT22;11785;49.500;8.288;2023-03-29T14:56:54;18.30;57.60
23233;DHT22;11785;49.500;8.288;2023-03-29T14:59:27;18.50;57.50
23233;DHT22;11785;49.500;8.288;2023-03-29T15:01:56;18.90;57.40
23233;DHT22;11785;49.500;8.288;2023-03-29T15:04:21;18.70;57.50
23233;DHT22;11785;49.500;8.288;2023-03-29T15:06:47;18.40;57.60
23233;DHT22;11785;49.500;8.288;2023-03-29T15:09:35;18.10;57.70
23233;DHT22;11785;49.500;8.288;2023-03-29T15:12:04;17.90;57.80
23233;DHT22;11785;49.500;8.288;2023-03-29T15:14:31;18.00;57.80
23233;DHT22;11785;49.500;8.288;2023-03-29T15:17:04;18.70;57.60
23233;DHT22;11785;49.500;8.288;2023-03-29T15:19:30;19.60;57.40
23233;DHT22;11785;49.500;8.288;2023-03-29T15:21:56;20.00;57.30
23233;DHT22;11785;49.500;8.288;2023-03-29T15:24:32;19.80;57.40
23233;DHT22;11785;49.500;8.288;2023-03-29T15:27:12;19.30;57.50
23233;DHT22;11785;49.500;8.288;2023-03-29T15:29:40;19.00;57.60
23233;DHT22;11785;49.500;8.288;2023-03-29T15:32:18;18.60;57.70
23233;DHT22;11785;49.500;8.288;2023-03-29T15:34:44;18.30;57.80
23233;DHT22;11785;49.500;8.288;2023-03-29T15:37:11;18.10;57.90
23233;DHT22;11785;49.500;8.288;2023-03-29T15:39:40;18.10;57.90
23233;DHT22;11785;49.500;8.288;2023-03-29T15:42:07;18.10;57.90
23233;DHT22;11785;49.500;8.288;2023-03-29T15:44:33;18.00;57.90
23233;DHT22;11785;49.500;8.288;2023-03-29T15:47:02;18.10;57.90
23233;DHT22;11785;49.500;8.288;2023-03-29T15:49:27;18.00;57.90
23233;DHT22;11785;49.500;8.288;2023-03-29T15:51:53;17.90;57.90
23233;DHT22;11785;49.500;8.288;2023-03-29T15:54:21;17.90;57.90
23233;DHT22;11785;49.500;8.288;2023-03-29T15:56:51;17.80;57.90
23233;DHT22;11785;49.500;8.288;2023-03-29T15:59:18;17.80;58.00
23233;DHT22;11785;49.500;8.288;2023-03-29T16:01:44;17.80;57.90
23233;DHT22;11785;49.500;8.288;2023-03-29T16:04:18;18.00;57.80
23233;DHT22;11785;49.500;8.288;2023-03-29T16:06:46;17.90;57.80
23233;DHT22;11785;49.500;8.288;2023-03-29T16:09:13;17.80;57.90
23233;DHT22;11785;49.500;8.288;2023-03-29T16:11:40;17.50;57.90
23233;DHT22;11785;49.500;8.288;2023-03-29T16:14:15;17.40;57.90
23233;DHT22;11785;49.500;8.288;2023-03-29T16:16:42;17.20;58.00
23233;DHT22;11785;49.500;8.288;2023-03-29T16:19:07;17.10;58.00
23233;DHT22;11785;49.500;8.288;2023-03-29T16:21:33;17.00;58.10
23233;DHT22;11785;49.500;8.288;2023-03-29T16:23:58;16.80;58.10
23233;DHT22;11785;49.500;8.288;2023-03-29T16:26:24;16.70;58.10
23233;DHT22;11785;49.500;8.288;2023-03-29T16:28:50;16.60;58.20
23233;DHT22;11785;49.500;8.288;2023-03-29T16:31:16;16.50;58.20
23233;DHT22;11785;49.500;8.288;2023-03-29T16:33:42;16.50;58.20
23233;DHT22;11785;49.500;8.288;2023-03-29T16:36:08;16.40;58.20
23233;DHT22;11785;49.500;8.288;2023-03-29T16:38:34;16.30;58.30
23233;DHT22;11785;49.500;8.288;2023-03-29T16:41:00;16.20;58.30
23233;DHT22;11785;49.500;8.288;2023-03-29T16:43:26;16.20;58.30
23233;DHT22;11785;49.500;8.288;2023-03-29T16:45:52;16.20;58.30
23233;DHT22;11785;49.500;8.288;2023-03-29T16:48:18;16.10;58.30
23233;DHT22;11785;49.500;8.288;2023-03-29T16:50:47;16.10;58.30
23233;DHT22;11785;49.500;8.288;2023-03-29T16:53:14;16.00;58.30
23233;DHT22;11785;49.500;8.288;2023-03-29T16:55:40;16.00;58.30
23233;DHT22;11785;49.500;8.288;2023-03-29T16:58:07;15.90;58.30
23233;DHT22;11785;49.500;8.288;2023-03-29T17:00:32;15.80;58.40
23233;DHT22;11785;49.500;8.288;2023-03-29T17:02:58;15.70;58.40
23233;DHT22;11785;49.500;8.288;2023-03-29T17:05:27;15.60;58.40
23233;DHT22;11785;49.500;8.288;2023-03-29T17:07:54;15.60;58.40
23233;DHT22;11785;49.500;8.288;2023-03-29T17:10:21;15.50;58.40
23233;DHT22;11785;49.500;8.288;2023-03-29T17:12:47;15.40;58.50
23233;DHT22;11785;49.500;8.288;2023-03-29T17:15:13;15.40;58.50
23233;DHT22;11785;49.500;8.288;2023-03-29T17:17:39;15.30;58.50
23233;DHT22;11785;49.500;8.288;2023-03-29T17:20:06;15.20;58.50
23233;DHT22;11785;49.500;8.288;2023-03-29T17:22:34;15.20;58.60
23233;DHT22;11785;49.500;8.288;2023-03-29T17:25:00;15.20;58.60